createdAt,value
2019-03-28T00:01:19.347Z,102466.66
2019-03-28T00:03:49.026Z,102466.20
2019-03-28T00:06:17.587Z,102471.83
2019-03-28T00:08:46.233Z,102468.81
2019-03-28T00:11:14.796Z,102465.33
2019-03-28T00:13:43.482Z,102463.16
2019-03-28T00:16:13.788Z,102470.52
2019-03-28T00:18:43.885Z,102465.76
2019-03-28T00:21:15.357Z,102469.62
2019-03-28T00:23:48.647Z,102469.17
2019-03-28T00:26:29.549Z,102465.30
2019-03-28T00:28:47.505Z,102465.32
2019-03-28T00:31:16.112Z,102465.30
2019-03-28T00:33:44.851Z,102465.30
2019-03-28T00:36:13.417Z,102457.53
2019-03-28T00:38:41.999Z,102461.41
2019-03-28T00:41:12.772Z,102459.69
2019-03-28T00:43:43.271Z,102453.65
2019-03-28T00:46:14.806Z,102452.33
2019-03-28T00:48:43.393Z,102451.47
2019-03-28T00:51:12.042Z,102457.98
2019-03-28T00:53:41.181Z,102452.35
2019-03-28T00:56:10.300Z,102453.19
2019-03-28T00:58:38.857Z,102452.34
2019-03-28T01:01:07.419Z,102453.23
2019-03-28T01:03:36.477Z,102451.02
2019-03-28T01:06:05.363Z,102450.61
2019-03-28T01:08:33.918Z,102455.37
2019-03-28T01:11:02.577Z,102451.05
2019-03-28T01:13:31.140Z,102451.49
2019-03-28T01:15:59.760Z,102453.20
2019-03-28T01:18:28.336Z,102457.52
2019-03-28T01:20:56.905Z,102456.20
2019-03-28T01:23:25.521Z,102448.41
2019-03-28T01:25:54.234Z,102456.63
2019-03-28T01:28:22.767Z,102459.23
2019-03-28T01:30:51.334Z,102459.72
2019-03-28T01:33:19.954Z,102454.51
2019-03-28T01:35:48.565Z,102454.92
2019-03-28T01:38:17.181Z,102453.67
2019-03-28T01:40:45.916Z,102451.05
2019-03-28T01:43:14.493Z,102454.48
2019-03-28T01:45:44.616Z,102451.45
2019-03-28T01:48:16.267Z,102450.21
2019-03-28T01:50:45.368Z,102443.27
2019-03-28T01:53:13.987Z,102446.76
2019-03-28T01:55:46.077Z,102446.78
2019-03-28T01:58:14.718Z,102447.18
2019-03-28T02:00:46.309Z,102448.03
2019-03-28T02:03:14.912Z,102441.08
2019-03-28T02:05:43.529Z,102441.97
2019-03-28T02:08:12.051Z,102439.77
2019-03-28T02:10:42.652Z,102438.06
2019-03-28T02:13:13.054Z,102442.39
2019-03-28T02:15:42.291Z,102445.84
2019-03-28T02:18:13.888Z,102443.20
2019-03-28T02:20:42.814Z,102447.16
2019-03-28T02:23:13.278Z,102441.53
2019-03-28T02:25:44.648Z,102445.85
2019-03-28T02:28:16.384Z,102450.59
2019-03-28T02:30:45.460Z,102443.26
2019-03-28T02:33:14.182Z,102448.88
2019-03-28T02:35:42.796Z,102451.51
2019-03-28T02:38:13.297Z,102448.41
2019-03-28T02:40:45.349Z,102454.94
2019-03-28T02:43:14.162Z,102449.31
2019-03-28T02:45:42.768Z,102454.06
2019-03-28T02:48:13.250Z,102458.83
2019-03-28T02:50:44.939Z,102457.53
2019-03-28T02:53:14.015Z,102460.98
2019-03-28T02:55:45.507Z,102464.86
2019-03-28T02:58:14.447Z,102460.11
2019-03-28T03:00:44.623Z,102460.98
2019-03-28T03:03:16.014Z,102458.83
2019-03-28T03:05:44.828Z,102464.43
2019-03-28T03:08:13.562Z,102453.63
2019-03-28T03:10:42.200Z,102457.95
2019-03-28T03:13:11.609Z,102454.50
2019-03-28T03:15:41.545Z,102458.82
2019-03-28T03:18:12.070Z,102456.64
2019-03-28T03:20:43.588Z,102456.66
2019-03-28T03:23:13.925Z,102460.53
2019-03-28T03:25:45.662Z,102454.46
2019-03-28T03:28:14.246Z,102459.23
2019-03-28T03:30:42.912Z,102458.83
2019-03-28T03:33:11.497Z,102456.22
2019-03-28T03:35:40.144Z,102460.52
2019-03-28T03:38:08.711Z,102459.21
2019-03-28T03:40:37.276Z,102468.71
2019-03-28T03:43:05.971Z,102467.02
2019-03-28T03:45:35.593Z,102466.16
2019-03-28T03:48:04.737Z,102467.00
2019-03-28T03:50:33.300Z,102473.06
2019-03-28T03:53:01.874Z,102477.41
2019-03-28T03:55:30.464Z,102475.66
2019-03-28T03:58:14.282Z,102468.31
2019-03-28T04:00:32.050Z,102469.19
2019-03-28T04:03:02.962Z,102472.22
2019-03-28T04:05:32.113Z,102468.78
2019-03-28T04:08:00.826Z,102470.95
2019-03-28T04:10:29.367Z,102466.20
2019-03-28T04:12:58.415Z,102475.28
2019-03-28T04:15:27.050Z,102475.69
2019-03-28T04:17:56.194Z,102476.56
2019-03-28T04:20:25.082Z,102482.21
2019-03-28T04:22:54.002Z,102486.11
2019-03-28T04:25:22.572Z,102480.89
2019-03-28T04:27:51.465Z,102491.26
2019-03-28T04:30:20.132Z,102482.17
2019-03-28T04:32:48.747Z,102486.47
2019-03-28T04:35:17.398Z,102483.87
2019-03-28T04:37:48.876Z,102485.19
2019-03-28T04:40:17.459Z,102488.17
2019-03-28T04:42:49.094Z,102491.20
2019-03-28T04:45:17.835Z,102498.60
2019-03-28T04:47:46.415Z,102498.61
2019-03-28T04:50:18.169Z,102505.08
2019-03-28T04:52:52.765Z,102504.66
2019-03-28T04:55:20.363Z,102515.45
2019-03-28T04:57:49.539Z,102514.59
2019-03-28T05:00:19.369Z,102507.67
2019-03-28T05:02:47.983Z,102520.25
2019-03-28T05:05:18.085Z,102524.98
2019-03-28T05:07:49.528Z,102512.44
2019-03-28T05:10:18.139Z,102521.11
2019-03-28T05:12:49.996Z,102523.24
2019-03-28T05:15:20.322Z,102521.92
2019-03-28T05:17:49.311Z,102518.88
2019-03-28T05:20:17.867Z,102520.64
2019-03-28T05:22:48.494Z,102520.16
2019-03-28T05:25:17.223Z,102525.80
2019-03-28T05:27:47.326Z,102527.95
2019-03-28T05:30:16.200Z,102527.54
2019-03-28T05:32:46.687Z,102533.57
2019-03-28T05:35:18.169Z,102536.19
2019-03-28T05:37:49.798Z,102537.88
2019-03-28T05:40:18.345Z,102532.68
2019-03-28T05:42:46.930Z,102533.14
2019-03-28T05:45:15.568Z,102530.97
2019-03-28T05:47:44.489Z,102542.63
2019-03-28T05:50:13.145Z,102543.05
2019-03-28T05:52:41.949Z,102539.59
2019-03-28T05:55:10.609Z,102545.66
2019-03-28T05:57:39.151Z,102546.97
2019-03-28T06:00:08.392Z,102552.16
2019-03-28T06:02:36.949Z,102557.36
2019-03-28T06:05:07.420Z,102559.95
2019-03-28T06:07:36.455Z,102558.67
2019-03-28T06:10:07.543Z,102570.76
2019-03-28T06:12:36.112Z,102572.08
2019-03-28T06:15:09.153Z,102574.25
2019-03-28T06:17:37.833Z,102577.70
2019-03-28T06:20:09.048Z,102579.02
2019-03-28T06:22:37.614Z,102583.78
2019-03-28T06:25:06.488Z,102584.64
2019-03-28T06:27:35.147Z,102585.48
2019-03-28T06:30:04.844Z,102586.78
2019-03-28T06:32:42.790Z,102589.80
2019-03-28T06:35:04.399Z,102592.42
2019-03-28T06:37:33.415Z,102596.30
2019-03-28T06:40:02.001Z,102597.16
2019-03-28T06:42:30.552Z,102599.34
2019-03-28T06:44:59.141Z,102604.53
2019-03-28T06:47:27.748Z,102606.25
2019-03-28T06:49:56.336Z,102609.73
2019-03-28T06:52:24.899Z,102610.57
2019-03-28T06:54:53.488Z,102607.98
2019-03-28T06:57:22.048Z,102616.20
2019-03-28T06:59:50.634Z,102617.97
2019-03-28T07:02:21.906Z,102617.06
2019-03-28T07:04:49.968Z,102621.77
2019-03-28T07:07:18.739Z,102624.01
2019-03-28T07:09:47.676Z,102623.11
2019-03-28T07:12:19.083Z,102626.13
2019-03-28T07:14:47.671Z,102631.77
2019-03-28T07:17:19.300Z,102631.36
2019-03-28T07:19:47.968Z,102630.89
2019-03-28T07:22:18.071Z,102629.16
2019-03-28T07:24:48.193Z,102631.27
2019-03-28T07:27:19.558Z,102632.59
2019-03-28T07:29:51.250Z,102646.02
2019-03-28T07:32:18.418Z,102642.55
2019-03-28T07:34:47.002Z,102640.34
2019-03-28T07:37:15.912Z,102641.67
2019-03-28T07:39:47.285Z,102643.37
2019-03-28T07:42:17.691Z,102634.69
2019-03-28T07:44:46.252Z,102636.89
2019-03-28T07:47:16.715Z,102636.41
2019-03-28T07:49:48.452Z,102629.89
2019-03-28T07:52:19.971Z,102630.70
2019-03-28T07:54:48.883Z,102635.03
2019-03-28T07:57:17.606Z,102635.50
2019-03-28T07:59:46.172Z,102636.81
2019-03-28T08:02:16.485Z,102643.69
2019-03-28T08:04:45.044Z,102642.34
2019-03-28T08:07:14.912Z,102651.02
2019-03-28T08:09:44.581Z,102650.14
2019-03-28T08:12:22.409Z,102654.11
2019-03-28T08:14:43.393Z,102642.81
2019-03-28T08:17:12.341Z,102649.26
2019-03-28T08:19:41.669Z,102650.13
2019-03-28T08:22:10.349Z,102653.10
2019-03-28T08:24:38.924Z,102651.79
2019-03-28T08:27:07.564Z,102650.46
2019-03-28T08:29:36.118Z,102651.79
2019-03-28T08:32:06.332Z,102659.98
2019-03-28T08:34:34.892Z,102660.73
2019-03-28T08:37:03.698Z,102654.86
2019-03-28T08:39:32.388Z,102662.20
2019-03-28T08:42:00.965Z,102672.06
2019-03-28T08:44:29.533Z,102664.30
2019-03-28T08:46:58.109Z,102672.88
2019-03-28T08:49:27.058Z,102684.12
2019-03-28T08:51:55.997Z,102682.81
2019-03-28T08:54:24.581Z,102679.67
2019-03-28T08:56:53.155Z,102679.27
2019-03-28T08:59:21.714Z,102685.28
2019-03-28T09:01:50.669Z,102682.97
2019-03-28T09:04:19.229Z,102683.10
2019-03-28T09:06:47.819Z,102688.77
2019-03-28T09:09:16.453Z,102685.35
2019-03-28T09:11:45.368Z,102697.28
2019-03-28T09:14:13.965Z,102690.33
2019-03-28T09:16:42.871Z,102690.39
2019-03-28T09:19:11.428Z,102677.15
2019-03-28T09:21:39.995Z,102679.75
2019-03-28T09:24:08.604Z,102680.36
2019-03-28T09:26:37.168Z,102683.52
2019-03-28T09:29:05.808Z,102681.09
2019-03-28T09:31:34.742Z,102675.66
2019-03-28T09:34:03.330Z,102674.27
2019-03-28T09:36:31.890Z,102676.86
2019-03-28T09:39:00.465Z,102676.05
2019-03-28T09:41:29.035Z,102678.98
2019-03-28T09:43:57.600Z,102679.48
2019-03-28T09:46:26.219Z,102678.13
2019-03-28T09:48:54.792Z,102670.77
2019-03-28T09:51:23.346Z,102676.15
2019-03-28T09:53:51.933Z,102675.53
2019-03-28T09:56:20.578Z,102679.20
2019-03-28T09:58:49.152Z,102677.53
2019-03-28T10:01:17.707Z,102674.20
2019-03-28T10:03:46.295Z,102687.55
2019-03-28T10:06:16.574Z,102678.65
2019-03-28T10:08:45.160Z,102681.25
2019-03-28T10:11:14.840Z,102687.13
2019-03-28T10:13:43.396Z,102681.41
2019-03-28T10:16:11.955Z,102674.78
2019-03-28T10:18:40.539Z,102678.60
2019-03-28T10:21:09.088Z,102684.70
2019-03-28T10:23:39.820Z,102686.73
2019-03-28T10:26:07.976Z,102685.77
2019-03-28T10:28:36.562Z,102691.37
2019-03-28T10:31:15.771Z,102687.27
2019-03-28T10:33:35.429Z,102684.09
2019-03-28T10:36:03.981Z,102682.38
2019-03-28T10:38:32.586Z,102680.81
2019-03-28T10:41:01.130Z,102679.66
2019-03-28T10:43:29.707Z,102677.47
2019-03-28T10:45:58.264Z,102682.14
2019-03-28T10:48:26.841Z,102687.96
2019-03-28T10:50:55.403Z,102686.78
2019-03-28T10:53:23.989Z,102688.67
2019-03-28T10:55:52.541Z,102687.83
2019-03-28T10:58:21.119Z,102689.99
2019-03-28T11:00:49.688Z,102702.98
2019-03-28T11:03:18.331Z,102692.16
2019-03-28T11:05:50.001Z,102688.16
2019-03-28T11:08:18.583Z,102695.64
2019-03-28T11:10:47.136Z,102700.97
2019-03-28T11:13:16.472Z,102699.09
2019-03-28T11:15:45.436Z,102708.16
2019-03-28T11:18:14.070Z,102705.80
2019-03-28T11:20:42.622Z,102709.87
2019-03-28T11:23:11.607Z,102710.77
2019-03-28T11:25:40.194Z,102715.17
2019-03-28T11:28:08.743Z,102706.42
2019-03-28T11:30:37.323Z,102708.73
2019-03-28T11:33:06.621Z,102720.66
2019-03-28T11:35:35.630Z,102719.32
2019-03-28T11:38:04.187Z,102723.17
2019-03-28T11:40:32.766Z,102725.75
2019-03-28T11:43:01.327Z,102724.75
2019-03-28T11:45:29.908Z,102727.77
2019-03-28T11:47:58.480Z,102725.41
2019-03-28T11:50:27.061Z,102724.34
2019-03-28T11:52:55.623Z,102719.59
2019-03-28T11:55:24.210Z,102726.18
2019-03-28T11:57:52.776Z,102724.57
2019-03-28T12:00:21.438Z,102730.36
2019-03-28T12:02:49.989Z,102724.88
2019-03-28T12:05:18.574Z,102727.09
2019-03-28T12:07:47.127Z,102718.58
2019-03-28T12:10:17.055Z,102722.38
2019-03-28T12:12:45.693Z,102723.84
2019-03-28T12:15:14.719Z,102732.67
2019-03-28T12:17:43.351Z,102732.27
2019-03-28T12:20:12.266Z,102732.46
2019-03-28T12:22:40.818Z,102738.82
2019-03-28T12:25:11.119Z,102738.39
2019-03-28T12:27:39.684Z,102738.86
2019-03-28T12:30:15.766Z,102741.06
2019-03-28T12:32:43.083Z,102741.48
2019-03-28T12:35:11.905Z,102741.51
2019-03-28T12:37:40.564Z,102741.47
2019-03-28T12:40:09.954Z,102740.12
2019-03-28T12:42:38.615Z,102740.78
2019-03-28T12:45:13.721Z,102739.02
2019-03-28T12:47:43.232Z,102741.72
2019-03-28T12:50:16.592Z,102748.23
2019-03-28T12:52:45.556Z,102743.42
2019-03-28T12:55:15.634Z,102740.00
2019-03-28T12:57:44.588Z,102749.97
2019-03-28T13:00:14.585Z,102749.20
2019-03-28T13:02:44.677Z,102749.09
2019-03-28T13:05:15.489Z,102743.04
2019-03-28T13:07:46.584Z,102744.36
2019-03-28T13:10:18.363Z,102746.88
2019-03-28T13:12:46.936Z,102747.77
2019-03-28T13:15:15.752Z,102745.47
2019-03-28T13:17:47.236Z,102746.73
2019-03-28T13:20:17.387Z,102749.03
2019-03-28T13:22:46.134Z,102748.92
2019-03-28T13:25:16.491Z,102763.52
2019-03-28T13:27:45.425Z,102753.95
2019-03-28T13:30:15.009Z,102754.81
2019-03-28T13:32:45.062Z,102751.61
2019-03-28T13:35:15.881Z,102752.62
2019-03-28T13:37:44.700Z,102753.01
2019-03-28T13:40:13.800Z,102751.43
2019-03-28T13:42:42.411Z,102758.41
2019-03-28T13:45:11.917Z,102760.04
2019-03-28T13:47:40.569Z,102761.59
2019-03-28T13:50:10.857Z,102753.22
2019-03-28T13:52:39.421Z,102760.53
2019-03-28T13:55:08.619Z,102757.34
2019-03-28T13:57:37.217Z,102750.73
2019-03-28T14:00:08.032Z,102754.84
2019-03-28T14:02:37.050Z,102749.48
2019-03-28T14:05:09.019Z,102743.86
2019-03-28T14:07:37.639Z,102743.19
2019-03-28T14:10:08.314Z,102741.19
2019-03-28T14:12:36.887Z,102739.02
2019-03-28T14:15:07.004Z,102737.55
2019-03-28T14:17:35.654Z,102743.39
2019-03-28T14:20:06.041Z,102741.70
2019-03-28T14:22:34.701Z,102742.58
2019-03-28T14:25:03.808Z,102738.78
2019-03-28T14:27:32.386Z,102742.38
2019-03-28T14:30:00.959Z,102738.95
2019-03-28T14:32:29.546Z,102739.42
2019-03-28T14:34:58.110Z,102741.08
2019-03-28T14:37:26.683Z,102749.75
2019-03-28T14:39:55.247Z,102752.22
2019-03-28T14:42:23.826Z,102746.91
2019-03-28T14:44:52.392Z,102747.70
2019-03-28T14:47:20.942Z,102748.01
2019-03-28T14:49:49.537Z,102747.04
2019-03-28T14:52:18.301Z,102751.86
2019-03-28T14:54:49.898Z,102752.00
2019-03-28T14:57:19.797Z,102752.08
2019-03-28T14:59:49.815Z,102754.77
2019-03-28T15:02:18.378Z,102758.25
2019-03-28T15:04:46.951Z,102757.34
2019-03-28T15:07:15.507Z,102754.83
2019-03-28T15:09:45.845Z,102760.52
2019-03-28T15:12:17.311Z,102755.87
2019-03-28T15:14:47.450Z,102751.58
2019-03-28T15:17:16.276Z,102749.45
2019-03-28T15:19:46.491Z,102753.81
2019-03-28T15:22:15.179Z,102741.68
2019-03-28T15:24:43.802Z,102739.89
2019-03-28T15:27:12.426Z,102741.98
2019-03-28T15:29:40.998Z,102741.87
2019-03-28T15:32:09.555Z,102735.83
2019-03-28T15:34:38.462Z,102740.24
2019-03-28T15:37:07.021Z,102735.98
2019-03-28T15:39:35.616Z,102737.14
2019-03-28T15:42:04.240Z,102729.23
2019-03-28T15:44:32.828Z,102727.80
2019-03-28T15:47:01.387Z,102730.80
2019-03-28T15:49:30.040Z,102736.36
2019-03-28T15:51:58.608Z,102746.13
2019-03-28T15:54:27.519Z,102743.27
2019-03-28T15:56:58.598Z,102748.87
2019-03-28T15:59:26.397Z,102754.97
2019-03-28T16:01:54.938Z,102753.56
2019-03-28T16:04:24.899Z,102762.67
2019-03-28T16:06:53.916Z,102769.09
2019-03-28T16:09:22.532Z,102775.70
2019-03-28T16:12:01.984Z,102769.23
2019-03-28T16:14:21.938Z,102766.73
2019-03-28T16:16:50.492Z,102769.36
2019-03-28T16:19:19.065Z,102771.50
2019-03-28T16:21:47.760Z,102770.22
2019-03-28T16:24:16.351Z,102767.99
2019-03-28T16:26:44.954Z,102776.33
2019-03-28T16:29:14.687Z,102778.11
2019-03-28T16:31:43.302Z,102775.08
2019-03-28T16:34:11.923Z,102769.98
2019-03-28T16:36:40.550Z,102774.63
2019-03-28T16:39:09.306Z,102772.20
2019-03-28T16:41:37.895Z,102766.90
2019-03-28T16:44:06.506Z,102766.33
2019-03-28T16:46:35.119Z,102772.89
2019-03-28T16:49:03.673Z,102768.61
2019-03-28T16:51:32.335Z,102770.84
2019-03-28T16:54:01.607Z,102773.35
2019-03-28T16:56:30.414Z,102776.47
2019-03-28T16:58:59.393Z,102777.67
2019-03-28T17:01:28.004Z,102778.98
2019-03-28T17:03:56.609Z,102776.44
2019-03-28T17:06:25.226Z,102780.89
2019-03-28T17:08:53.940Z,102781.72
2019-03-28T17:11:23.653Z,102777.03
2019-03-28T17:13:52.482Z,102778.42
2019-03-28T17:16:28.411Z,102777.48
2019-03-28T17:18:57.143Z,102782.66
2019-03-28T17:21:25.786Z,102777.09
2019-03-28T17:23:54.399Z,102781.50
2019-03-28T17:26:23.417Z,102782.73
2019-03-28T17:28:52.027Z,102782.89
2019-03-28T17:31:20.634Z,102789.78
2019-03-28T17:33:49.195Z,102792.80
2019-03-28T17:36:17.871Z,102792.00
2019-03-28T17:38:47.954Z,102800.64
2019-03-28T17:41:18.234Z,102799.79
2019-03-28T17:43:49.800Z,102806.30
2019-03-28T17:46:18.674Z,102807.17
2019-03-28T17:48:47.349Z,102803.67
2019-03-28T17:51:17.578Z,102808.91
2019-03-28T17:53:49.264Z,102810.59
2019-03-28T17:56:18.291Z,102809.33
2019-03-28T17:58:49.669Z,102814.08
2019-03-28T18:01:18.292Z,102821.09
2019-03-28T18:03:49.669Z,102821.58
2019-03-28T18:06:18.383Z,102821.98
2019-03-28T18:08:46.991Z,102823.30
2019-03-28T18:11:15.601Z,102824.20
2019-03-28T18:13:46.242Z,102831.98
2019-03-28T18:16:16.641Z,102835.91
2019-03-28T18:18:45.254Z,102832.90
2019-03-28T18:21:13.957Z,102838.05
2019-03-28T18:23:42.689Z,102834.58
2019-03-28T18:26:12.938Z,102835.00
2019-03-28T18:28:41.560Z,102841.00
2019-03-28T18:31:10.181Z,102840.54
2019-03-28T18:33:38.793Z,102840.17
2019-03-28T18:36:07.419Z,102840.63
2019-03-28T18:38:36.916Z,102843.64
2019-03-28T18:41:05.846Z,102847.11
2019-03-28T18:43:34.793Z,102845.00
2019-03-28T18:46:03.513Z,102852.81
2019-03-28T18:48:36.397Z,102852.41
2019-03-28T18:51:03.258Z,102844.59
2019-03-28T18:53:31.868Z,102849.78
2019-03-28T18:56:00.475Z,102844.97
2019-03-28T18:58:29.142Z,102852.39
2019-03-28T19:00:57.798Z,102857.11
2019-03-28T19:03:26.442Z,102860.19
2019-03-28T19:05:55.073Z,102862.34
2019-03-28T19:08:23.804Z,102860.19
2019-03-28T19:10:52.458Z,102865.80
2019-03-28T19:13:21.061Z,102861.02
2019-03-28T19:15:50.214Z,102861.44
2019-03-28T19:18:19.216Z,102859.72
2019-03-28T19:20:47.838Z,102867.02
2019-03-28T19:23:18.222Z,102871.37
2019-03-28T19:25:49.588Z,102866.19
2019-03-28T19:28:28.594Z,102873.64
2019-03-28T19:30:48.971Z,102877.11
2019-03-28T19:33:18.009Z,102876.73
2019-03-28T19:35:49.162Z,102884.53
2019-03-28T19:38:18.212Z,102881.95
2019-03-28T19:40:49.585Z,102881.52
2019-03-28T19:43:20.802Z,102881.50
2019-03-28T19:45:48.553Z,102883.23
2019-03-28T19:48:17.165Z,102890.63
2019-03-28T19:50:47.337Z,102889.70
2019-03-28T19:53:16.161Z,102883.60
2019-03-28T19:55:46.541Z,102886.61
2019-03-28T19:58:15.153Z,102890.98
2019-03-28T20:00:44.033Z,102887.13
2019-03-28T20:03:12.887Z,102895.81
2019-03-28T20:05:47.770Z,102896.23
2019-03-28T20:08:15.916Z,102896.68
2019-03-28T20:10:42.550Z,102901.00
2019-03-28T20:13:11.494Z,102899.30
2019-03-28T20:15:40.179Z,102905.80
2019-03-28T20:18:09.770Z,102901.91
2019-03-28T20:20:38.532Z,102901.43
2019-03-28T20:23:07.314Z,102902.72
2019-03-28T20:25:36.293Z,102905.33
2019-03-28T20:28:04.925Z,102902.75
2019-03-28T20:30:33.521Z,102902.75
2019-03-28T20:33:02.251Z,102891.45
2019-03-28T20:35:30.882Z,102895.35
2019-03-28T20:37:59.604Z,102891.85
2019-03-28T20:40:28.741Z,102888.40
2019-03-28T20:42:57.875Z,102894.86
2019-03-28T20:45:26.571Z,102890.07
2019-03-28T20:47:55.283Z,102893.14
2019-03-28T20:50:24.199Z,102899.22
2019-03-28T20:52:53.242Z,102903.58
2019-03-28T20:55:21.855Z,102896.22
2019-03-28T20:57:50.476Z,102900.56
2019-03-28T21:00:37.311Z,102902.27
2019-03-28T21:03:19.381Z,102901.42
2019-03-28T21:05:48.419Z,102907.06
2019-03-28T21:08:17.767Z,102906.22
2019-03-28T21:10:46.441Z,102902.30
2019-03-28T21:13:15.202Z,102901.89
2019-03-28T21:15:46.593Z,102895.39
2019-03-28T21:18:15.202Z,102899.25
2019-03-28T21:20:43.945Z,102897.53
2019-03-28T21:23:12.968Z,102896.66
2019-03-28T21:25:42.012Z,102893.20
2019-03-28T21:28:13.694Z,102894.09
2019-03-28T21:30:47.174Z,102891.93
2019-03-28T21:33:14.866Z,102894.09
2019-03-28T21:35:42.240Z,102892.80
2019-03-28T21:38:10.971Z,102897.11
2019-03-28T21:40:39.728Z,102891.91
2019-03-28T21:43:08.481Z,102895.83
2019-03-28T21:45:37.187Z,102904.06
2019-03-28T21:48:05.916Z,102901.02
2019-03-28T21:50:34.638Z,102900.13
2019-03-28T21:53:03.258Z,102894.06
2019-03-28T21:55:31.883Z,102888.88
2019-03-28T21:58:00.863Z,102877.62
2019-03-28T22:00:29.545Z,102885.00
2019-03-28T22:02:58.149Z,102882.36
2019-03-28T22:05:28.876Z,102885.42
2019-03-28T22:07:57.223Z,102894.53
2019-03-28T22:10:25.945Z,102891.51
2019-03-28T22:12:55.900Z,102891.95
2019-03-28T22:15:24.695Z,102898.88
2019-03-28T22:17:53.300Z,102895.84
2019-03-28T22:20:21.909Z,102896.27
2019-03-28T22:22:50.517Z,102894.95
2019-03-28T22:25:19.134Z,102891.05
2019-03-28T22:27:47.838Z,102891.02
2019-03-28T22:30:17.392Z,102894.92
2019-03-28T22:32:47.933Z,102898.00
2019-03-28T22:35:18.194Z,102899.30
2019-03-28T22:37:49.987Z,102891.08
2019-03-28T22:40:18.603Z,102894.96
2019-03-28T22:42:47.212Z,102895.41
2019-03-28T22:45:18.126Z,102894.55
2019-03-28T22:47:47.314Z,102894.53
2019-03-28T22:50:17.666Z,102888.92
2019-03-28T22:52:46.282Z,102883.26
2019-03-28T22:55:16.423Z,102880.67
2019-03-28T22:57:45.033Z,102877.20
2019-03-28T23:00:15.639Z,102879.34
2019-03-28T23:02:44.611Z,102885.81
2019-03-28T23:05:14.744Z,102886.28
2019-03-28T23:07:43.388Z,102887.57
2019-03-28T23:10:12.105Z,102894.95
2019-03-28T23:12:40.697Z,102898.86
2019-03-28T23:15:11.212Z,102895.41
2019-03-28T23:17:40.014Z,102898.44
2019-03-28T23:20:09.439Z,102893.23
2019-03-28T23:22:38.331Z,102893.66
2019-03-28T23:25:08.126Z,102901.02
2019-03-28T23:27:36.814Z,102902.31
2019-03-28T23:30:08.597Z,102901.04
2019-03-28T23:32:37.199Z,102909.70
2019-03-28T23:35:06.389Z,102897.58
2019-03-28T23:37:35.039Z,102911.88
2019-03-28T23:40:04.878Z,102907.97
2019-03-28T23:42:33.758Z,102912.72
2019-03-28T23:45:02.318Z,102906.20
2019-03-28T23:47:31.014Z,102909.25
2019-03-28T23:49:59.621Z,102911.42
2019-03-28T23:52:28.206Z,102907.96
2019-03-28T23:54:56.842Z,102907.09
2019-03-28T23:57:25.450Z,102911.41
2019-03-28T23:59:54.470Z,102916.62
